sensor_id;sensor_type;location;lat;lon;timestamp;P1;durP1;ratioP1;P2;durP2;ratioP2
75818;SDS011;64453;51.944;9.796;2023-03-08T00:00:53;3.77;;;3.57;;
75818;SDS011;64453;51.944;9.796;2023-03-08T00:03:21;4.20;;;3.90;;
75818;SDS011;64453;51.944;9.796;2023-03-08T00:05:47;4.97;;;4.57;;
75818;SDS011;64453;51.944;9.796;2023-03-08T00:08:14;4.03;;;3.80;;
75818;SDS011;64453;51.944;9.796;2023-03-08T00:10:42;3.87;;;3.67;;
75818;SDS011;64453;51.944;9.796;2023-03-08T00:13:09;3.80;;;3.60;;
75818;SDS011;64453;51.944;9.796;2023-03-08T00:15:36;4.50;;;4.20;;
75818;SDS011;64453;51.944;9.796;2023-03-08T00:18:04;3.80;;;3.60;;
75818;SDS011;64453;51.944;9.796;2023-03-08T00:20:32;3.70;;;3.50;;
75818;SDS011;64453;51.944;9.796;2023-03-08T00:22:59;3.80;;;3.60;;
75818;SDS011;64453;51.944;9.796;2023-03-08T00:25:29;5.90;;;4.07;;
75818;SDS011;64453;51.944;9.796;2023-03-08T00:27:56;3.93;;;3.63;;
75818;SDS011;64453;51.944;9.796;2023-03-08T00:30:23;4.43;;;4.13;;
75818;SDS011;64453;51.944;9.796;2023-03-08T00:32:50;4.07;;;3.87;;
75818;SDS011;64453;51.944;9.796;2023-03-08T00:35:16;4.37;;;4.07;;
75818;SDS011;64453;51.944;9.796;2023-03-08T00:37:45;4.87;;;4.47;;
75818;SDS011;64453;51.944;9.796;2023-03-08T00:40:12;4.87;;;4.47;;
75818;SDS011;64453;51.944;9.796;2023-03-08T00:42:38;5.30;;;4.80;;
75818;SDS011;64453;51.944;9.796;2023-03-08T00:45:06;4.73;;;4.33;;
75818;SDS011;64453;51.944;9.796;2023-03-08T00:47:34;4.07;;;3.87;;
75818;SDS011;64453;51.944;9.796;2023-03-08T00:50:02;4.40;;;4.00;;
75818;SDS011;64453;51.944;9.796;2023-03-08T00:52:29;3.70;;;3.50;;
75818;SDS011;64453;51.944;9.796;2023-03-08T00:54:57;4.07;;;3.77;;
75818;SDS011;64453;51.944;9.796;2023-03-08T00:57:24;3.40;;;3.20;;
75818;SDS011;64453;51.944;9.796;2023-03-08T00:59:51;4.00;;;3.80;;
75818;SDS011;64453;51.944;9.796;2023-03-08T01:02:18;3.97;;;3.67;;
75818;SDS011;64453;51.944;9.796;2023-03-08T01:04:44;3.80;;;3.60;;
75818;SDS011;64453;51.944;9.796;2023-03-08T01:07:11;4.77;;;4.47;;
75818;SDS011;64453;51.944;9.796;2023-03-08T01:09:38;4.80;;;4.40;;
75818;SDS011;64453;51.944;9.796;2023-03-08T01:12:06;5.10;;;4.70;;
75818;SDS011;64453;51.944;9.796;2023-03-08T01:14:33;4.97;;;4.57;;
75818;SDS011;64453;51.944;9.796;2023-03-08T01:17:00;4.87;;;4.47;;
75818;SDS011;64453;51.944;9.796;2023-03-08T01:19:27;4.90;;;4.50;;
75818;SDS011;64453;51.944;9.796;2023-03-08T01:21:53;5.47;;;5.10;;
75818;SDS011;64453;51.944;9.796;2023-03-08T01:24:20;5.03;;;4.60;;
75818;SDS011;64453;51.944;9.796;2023-03-08T01:26:47;5.30;;;4.80;;
75818;SDS011;64453;51.944;9.796;2023-03-08T01:29:15;4.80;;;4.50;;
75818;SDS011;64453;51.944;9.796;2023-03-08T01:31:42;4.77;;;4.47;;
75818;SDS011;64453;51.944;9.796;2023-03-08T01:34:09;4.20;;;3.90;;
75818;SDS011;64453;51.944;9.796;2023-03-08T01:36:35;4.33;;;4.03;;
75818;SDS011;64453;51.944;9.796;2023-03-08T01:39:02;4.70;;;4.30;;
75818;SDS011;64453;51.944;9.796;2023-03-08T01:41:29;4.93;;;4.50;;
75818;SDS011;64453;51.944;9.796;2023-03-08T01:43:57;4.87;;;4.57;;
75818;SDS011;64453;51.944;9.796;2023-03-08T01:46:29;5.23;;;4.77;;
75818;SDS011;64453;51.944;9.796;2023-03-08T01:48:58;4.70;;;4.40;;
75818;SDS011;64453;51.944;9.796;2023-03-08T01:51:33;5.13;;;4.60;;
75818;SDS011;64453;51.944;9.796;2023-03-08T01:54:03;5.20;;;4.80;;
75818;SDS011;64453;51.944;9.796;2023-03-08T01:56:36;5.43;;;5.00;;
75818;SDS011;64453;51.944;9.796;2023-03-08T01:59:04;5.33;;;4.93;;
75818;SDS011;64453;51.944;9.796;2023-03-08T02:01:33;4.90;;;4.50;;
75818;SDS011;64453;51.944;9.796;2023-03-08T02:04:00;5.70;;;5.20;;
75818;SDS011;64453;51.944;9.796;2023-03-08T02:06:28;5.90;;;5.43;;
75818;SDS011;64453;51.944;9.796;2023-03-08T02:08:55;7.30;;;6.60;;
75818;SDS011;64453;51.944;9.796;2023-03-08T02:11:22;6.20;;;5.80;;
75818;SDS011;64453;51.944;9.796;2023-03-08T02:13:50;6.93;;;6.43;;
75818;SDS011;64453;51.944;9.796;2023-03-08T02:16:18;7.23;;;6.60;;
75818;SDS011;64453;51.944;9.796;2023-03-08T02:18:52;6.30;;;5.90;;
75818;SDS011;64453;51.944;9.796;2023-03-08T02:21:22;7.67;;;7.07;;
75818;SDS011;64453;51.944;9.796;2023-03-08T02:23:51;8.23;;;7.53;;
75818;SDS011;64453;51.944;9.796;2023-03-08T02:26:18;6.97;;;6.40;;
75818;SDS011;64453;51.944;9.796;2023-03-08T02:28:45;7.90;;;7.30;;
75818;SDS011;64453;51.944;9.796;2023-03-08T02:31:14;7.70;;;7.10;;
75818;SDS011;64453;51.944;9.796;2023-03-08T02:33:41;8.63;;;7.83;;
75818;SDS011;64453;51.944;9.796;2023-03-08T02:36:08;8.67;;;7.97;;
75818;SDS011;64453;51.944;9.796;2023-03-08T02:38:35;8.83;;;8.03;;
75818;SDS011;64453;51.944;9.796;2023-03-08T02:41:04;8.83;;;8.17;;
75818;SDS011;64453;51.944;9.796;2023-03-08T02:43:31;8.67;;;8.00;;
75818;SDS011;64453;51.944;9.796;2023-03-08T02:45:58;9.33;;;8.60;;
75818;SDS011;64453;51.944;9.796;2023-03-08T02:48:25;8.70;;;8.00;;
75818;SDS011;64453;51.944;9.796;2023-03-08T02:50:52;8.07;;;7.37;;
75818;SDS011;64453;51.944;9.796;2023-03-08T02:53:19;9.10;;;8.30;;
75818;SDS011;64453;51.944;9.796;2023-03-08T02:55:45;8.73;;;7.93;;
75818;SDS011;64453;51.944;9.796;2023-03-08T02:58:14;9.07;;;8.27;;
75818;SDS011;64453;51.944;9.796;2023-03-08T03:00:41;10.73;;;9.80;;
75818;SDS011;64453;51.944;9.796;2023-03-08T03:03:08;9.67;;;8.80;;
75818;SDS011;64453;51.944;9.796;2023-03-08T03:05:38;8.83;;;8.03;;
75818;SDS011;64453;51.944;9.796;2023-03-08T03:08:07;10.70;;;9.80;;
75818;SDS011;64453;51.944;9.796;2023-03-08T03:10:34;11.27;;;10.27;;
75818;SDS011;64453;51.944;9.796;2023-03-08T03:13:01;10.17;;;9.37;;
75818;SDS011;64453;51.944;9.796;2023-03-08T03:15:30;10.43;;;9.57;;
75818;SDS011;64453;51.944;9.796;2023-03-08T03:17:58;10.50;;;9.60;;
75818;SDS011;64453;51.944;9.796;2023-03-08T03:20:25;10.80;;;9.80;;
75818;SDS011;64453;51.944;9.796;2023-03-08T03:22:52;10.10;;;9.20;;
75818;SDS011;64453;51.944;9.796;2023-03-08T03:25:18;10.13;;;9.33;;
75818;SDS011;64453;51.944;9.796;2023-03-08T03:27:45;10.67;;;9.67;;
75818;SDS011;64453;51.944;9.796;2023-03-08T03:30:12;10.40;;;9.60;;
75818;SDS011;64453;51.944;9.796;2023-03-08T03:32:41;10.03;;;9.23;;
75818;SDS011;64453;51.944;9.796;2023-03-08T03:35:08;10.93;;;9.93;;
75818;SDS011;64453;51.944;9.796;2023-03-08T03:37:35;11.20;;;10.30;;
75818;SDS011;64453;51.944;9.796;2023-03-08T03:40:02;10.70;;;9.80;;
75818;SDS011;64453;51.944;9.796;2023-03-08T03:42:29;10.80;;;9.83;;
75818;SDS011;64453;51.944;9.796;2023-03-08T03:44:56;10.63;;;9.70;;
75818;SDS011;64453;51.944;9.796;2023-03-08T03:47:23;11.40;;;10.50;;
75818;SDS011;64453;51.944;9.796;2023-03-08T03:49:51;10.07;;;9.27;;
75818;SDS011;64453;51.944;9.796;2023-03-08T03:52:18;10.57;;;9.67;;
75818;SDS011;64453;51.944;9.796;2023-03-08T03:54:45;12.13;;;11.07;;
75818;SDS011;64453;51.944;9.796;2023-03-08T03:57:12;11.13;;;10.23;;
75818;SDS011;64453;51.944;9.796;2023-03-08T03:59:38;11.97;;;10.97;;
75818;SDS011;64453;51.944;9.796;2023-03-08T04:02:05;11.53;;;10.50;;
75818;SDS011;64453;51.944;9.796;2023-03-08T04:04:32;12.10;;;11.10;;
75818;SDS011;64453;51.944;9.796;2023-03-08T04:07:00;11.80;;;10.80;;
75818;SDS011;64453;51.944;9.796;2023-03-08T04:09:27;12.50;;;11.30;;
75818;SDS011;64453;51.944;9.796;2023-03-08T04:11:54;11.73;;;10.73;;
75818;SDS011;64453;51.944;9.796;2023-03-08T04:14:26;12.07;;;10.97;;
75818;SDS011;64453;51.944;9.796;2023-03-08T04:16:53;12.30;;;11.10;;
75818;SDS011;64453;51.944;9.796;2023-03-08T04:19:20;11.13;;;10.13;;
75818;SDS011;64453;51.944;9.796;2023-03-08T04:21:47;12.33;;;11.13;;
75818;SDS011;64453;51.944;9.796;2023-03-08T04:24:15;11.60;;;10.60;;
75818;SDS011;64453;51.944;9.796;2023-03-08T04:26:42;11.83;;;10.73;;
75818;SDS011;64453;51.944;9.796;2023-03-08T04:29:08;9.93;;;9.10;;
75818;SDS011;64453;51.944;9.796;2023-03-08T04:31:36;11.60;;;10.40;;
75818;SDS011;64453;51.944;9.796;2023-03-08T04:34:03;10.90;;;10.00;;
75818;SDS011;64453;51.944;9.796;2023-03-08T04:36:30;11.10;;;10.20;;
75818;SDS011;64453;51.944;9.796;2023-03-08T04:38:57;11.10;;;10.20;;
75818;SDS011;64453;51.944;9.796;2023-03-08T04:41:26;11.77;;;10.67;;
75818;SDS011;64453;51.944;9.796;2023-03-08T04:43:53;10.60;;;9.60;;
75818;SDS011;64453;51.944;9.796;2023-03-08T04:46:22;10.67;;;9.63;;
75818;SDS011;64453;51.944;9.796;2023-03-08T04:48:51;10.57;;;9.57;;
75818;SDS011;64453;51.944;9.796;2023-03-08T04:51:20;11.27;;;10.27;;
75818;SDS011;64453;51.944;9.796;2023-03-08T04:53:49;10.40;;;9.50;;
75818;SDS011;64453;51.944;9.796;2023-03-08T04:56:16;11.10;;;10.00;;
75818;SDS011;64453;51.944;9.796;2023-03-08T04:58:44;10.73;;;9.83;;
75818;SDS011;64453;51.944;9.796;2023-03-08T05:01:13;11.63;;;10.73;;
75818;SDS011;64453;51.944;9.796;2023-03-08T05:03:42;11.40;;;10.40;;
75818;SDS011;64453;51.944;9.796;2023-03-08T05:06:10;11.00;;;10.07;;
75818;SDS011;64453;51.944;9.796;2023-03-08T05:08:38;11.33;;;10.33;;
75818;SDS011;64453;51.944;9.796;2023-03-08T05:11:05;12.13;;;11.13;;
75818;SDS011;64453;51.944;9.796;2023-03-08T05:13:33;11.03;;;10.13;;
75818;SDS011;64453;51.944;9.796;2023-03-08T05:16:03;10.67;;;9.77;;
75818;SDS011;64453;51.944;9.796;2023-03-08T05:18:32;11.43;;;10.23;;
75818;SDS011;64453;51.944;9.796;2023-03-08T05:21:00;10.50;;;9.50;;
75818;SDS011;64453;51.944;9.796;2023-03-08T05:23:29;11.00;;;10.00;;
75818;SDS011;64453;51.944;9.796;2023-03-08T05:25:57;11.80;;;10.70;;
75818;SDS011;64453;51.944;9.796;2023-03-08T05:28:27;11.90;;;10.80;;
75818;SDS011;64453;51.944;9.796;2023-03-08T05:30:59;11.10;;;10.00;;
75818;SDS011;64453;51.944;9.796;2023-03-08T05:33:28;10.83;;;9.93;;
75818;SDS011;64453;51.944;9.796;2023-03-08T05:35:56;10.20;;;9.30;;
75818;SDS011;64453;51.944;9.796;2023-03-08T05:38:23;11.10;;;10.10;;
75818;SDS011;64453;51.944;9.796;2023-03-08T05:40:50;11.23;;;10.23;;
75818;SDS011;64453;51.944;9.796;2023-03-08T05:43:18;11.13;;;10.10;;
75818;SDS011;64453;51.944;9.796;2023-03-08T05:45:53;10.87;;;9.87;;
75818;SDS011;64453;51.944;9.796;2023-03-08T05:48:21;11.47;;;10.47;;
75818;SDS011;64453;51.944;9.796;2023-03-08T05:50:50;10.37;;;9.57;;
75818;SDS011;64453;51.944;9.796;2023-03-08T05:53:17;11.17;;;10.23;;
75818;SDS011;64453;51.944;9.796;2023-03-08T05:55:44;10.63;;;9.70;;
75818;SDS011;64453;51.944;9.796;2023-03-08T05:58:11;11.83;;;10.40;;
75818;SDS011;64453;51.944;9.796;2023-03-08T06:00:38;11.27;;;10.27;;
75818;SDS011;64453;51.944;9.796;2023-03-08T06:03:05;12.13;;;10.93;;
75818;SDS011;64453;51.944;9.796;2023-03-08T06:05:32;12.50;;;11.30;;
75818;SDS011;64453;51.944;9.796;2023-03-08T06:08:01;10.97;;;10.03;;
75818;SDS011;64453;51.944;9.796;2023-03-08T06:10:27;12.40;;;11.20;;
75818;SDS011;64453;51.944;9.796;2023-03-08T06:12:54;10.70;;;9.60;;
75818;SDS011;64453;51.944;9.796;2023-03-08T06:15:21;10.90;;;10.00;;
75818;SDS011;64453;51.944;9.796;2023-03-08T06:17:50;9.70;;;8.87;;
75818;SDS011;64453;51.944;9.796;2023-03-08T06:20:18;10.10;;;9.30;;
75818;SDS011;64453;51.944;9.796;2023-03-08T06:22:46;10.20;;;9.30;;
75818;SDS011;64453;51.944;9.796;2023-03-08T06:25:14;10.77;;;9.87;;
75818;SDS011;64453;51.944;9.796;2023-03-08T06:27:41;10.53;;;9.57;;
75818;SDS011;64453;51.944;9.796;2023-03-08T06:30:08;10.77;;;9.87;;
75818;SDS011;64453;51.944;9.796;2023-03-08T06:32:37;10.73;;;9.83;;
75818;SDS011;64453;51.944;9.796;2023-03-08T06:35:04;10.80;;;9.80;;
75818;SDS011;64453;51.944;9.796;2023-03-08T06:37:32;9.37;;;8.57;;
75818;SDS011;64453;51.944;9.796;2023-03-08T06:40:19;10.17;;;9.27;;
75818;SDS011;64453;51.944;9.796;2023-03-08T06:42:46;11.20;;;10.20;;
75818;SDS011;64453;51.944;9.796;2023-03-08T06:45:13;11.43;;;10.43;;
75818;SDS011;64453;51.944;9.796;2023-03-08T06:47:40;11.87;;;10.77;;
75818;SDS011;64453;51.944;9.796;2023-03-08T06:50:07;10.93;;;9.73;;
75818;SDS011;64453;51.944;9.796;2023-03-08T06:52:36;11.13;;;9.97;;
75818;SDS011;64453;51.944;9.796;2023-03-08T06:55:03;11.37;;;10.27;;
75818;SDS011;64453;51.944;9.796;2023-03-08T06:57:31;12.07;;;10.97;;
75818;SDS011;64453;51.944;9.796;2023-03-08T06:59:58;11.43;;;10.43;;
75818;SDS011;64453;51.944;9.796;2023-03-08T07:02:25;12.57;;;11.47;;
75818;SDS011;64453;51.944;9.796;2023-03-08T07:04:52;12.20;;;11.10;;
75818;SDS011;64453;51.944;9.796;2023-03-08T07:07:19;12.40;;;11.30;;
75818;SDS011;64453;51.944;9.796;2023-03-08T07:09:46;12.53;;;11.43;;
75818;SDS011;64453;51.944;9.796;2023-03-08T07:12:13;12.60;;;11.50;;
75818;SDS011;64453;51.944;9.796;2023-03-08T07:14:41;12.90;;;11.80;;
75818;SDS011;64453;51.944;9.796;2023-03-08T07:17:08;13.53;;;12.33;;
75818;SDS011;64453;51.944;9.796;2023-03-08T07:19:35;13.77;;;12.47;;
75818;SDS011;64453;51.944;9.796;2023-03-08T07:22:02;13.53;;;12.23;;
75818;SDS011;64453;51.944;9.796;2023-03-08T07:24:29;13.17;;;11.83;;
75818;SDS011;64453;51.944;9.796;2023-03-08T07:26:55;14.47;;;13.07;;
75818;SDS011;64453;51.944;9.796;2023-03-08T07:29:22;13.80;;;12.60;;
75818;SDS011;64453;51.944;9.796;2023-03-08T07:31:50;12.73;;;11.53;;
75818;SDS011;64453;51.944;9.796;2023-03-08T07:34:17;13.10;;;11.90;;
75818;SDS011;64453;51.944;9.796;2023-03-08T07:36:44;13.40;;;12.20;;
75818;SDS011;64453;51.944;9.796;2023-03-08T07:39:11;14.13;;;12.83;;
75818;SDS011;64453;51.944;9.796;2023-03-08T07:41:38;15.10;;;13.80;;
75818;SDS011;64453;51.944;9.796;2023-03-08T07:44:04;15.07;;;13.70;;
75818;SDS011;64453;51.944;9.796;2023-03-08T07:46:31;13.80;;;12.60;;
75818;SDS011;64453;51.944;9.796;2023-03-08T07:48:59;15.20;;;13.80;;
75818;SDS011;64453;51.944;9.796;2023-03-08T07:51:26;15.80;;;14.37;;
75818;SDS011;64453;51.944;9.796;2023-03-08T07:53:53;17.40;;;15.80;;
75818;SDS011;64453;51.944;9.796;2023-03-08T07:56:20;17.50;;;15.80;;
75818;SDS011;64453;51.944;9.796;2023-03-08T07:58:47;15.77;;;14.37;;
75818;SDS011;64453;51.944;9.796;2023-03-08T08:01:13;14.33;;;13.03;;
75818;SDS011;64453;51.944;9.796;2023-03-08T08:03:40;14.60;;;13.30;;
75818;SDS011;64453;51.944;9.796;2023-03-08T08:06:08;14.13;;;12.97;;
75818;SDS011;64453;51.944;9.796;2023-03-08T08:08:35;15.00;;;13.70;;
75818;SDS011;64453;51.944;9.796;2023-03-08T08:11:08;14.27;;;12.97;;
75818;SDS011;64453;51.944;9.796;2023-03-08T08:13:36;12.87;;;11.67;;
75818;SDS011;64453;51.944;9.796;2023-03-08T08:16:03;13.93;;;12.73;;
75818;SDS011;64453;51.944;9.796;2023-03-08T08:18:32;14.37;;;13.13;;
75818;SDS011;64453;51.944;9.796;2023-03-08T08:20:59;13.37;;;12.17;;
75818;SDS011;64453;51.944;9.796;2023-03-08T08:23:29;13.27;;;12.00;;
75818;SDS011;64453;51.944;9.796;2023-03-08T08:25:56;13.70;;;12.60;;
75818;SDS011;64453;51.944;9.796;2023-03-08T08:28:23;14.27;;;12.93;;
75818;SDS011;64453;51.944;9.796;2023-03-08T08:30:55;13.33;;;12.23;;
75818;SDS011;64453;51.944;9.796;2023-03-08T08:33:23;14.53;;;13.27;;
75818;SDS011;64453;51.944;9.796;2023-03-08T08:35:50;15.23;;;13.73;;
75818;SDS011;64453;51.944;9.796;2023-03-08T08:38:17;13.07;;;11.87;;
75818;SDS011;64453;51.944;9.796;2023-03-08T08:40:45;13.50;;;12.30;;
75818;SDS011;64453;51.944;9.796;2023-03-08T08:43:12;15.07;;;13.77;;
75818;SDS011;64453;51.944;9.796;2023-03-08T08:45:42;16.40;;;14.90;;
75818;SDS011;64453;51.944;9.796;2023-03-08T08:48:10;23.93;;;21.57;;
75818;SDS011;64453;51.944;9.796;2023-03-08T08:50:37;20.90;;;18.80;;
75818;SDS011;64453;51.944;9.796;2023-03-08T08:53:04;16.40;;;14.90;;
75818;SDS011;64453;51.944;9.796;2023-03-08T08:55:31;18.83;;;17.03;;
75818;SDS011;64453;51.944;9.796;2023-03-08T08:58:00;18.90;;;17.00;;
75818;SDS011;64453;51.944;9.796;2023-03-08T09:00:27;18.60;;;16.90;;
75818;SDS011;64453;51.944;9.796;2023-03-08T09:02:54;20.37;;;18.40;;
75818;SDS011;64453;51.944;9.796;2023-03-08T09:05:21;20.20;;;18.30;;
75818;SDS011;64453;51.944;9.796;2023-03-08T09:07:48;18.40;;;16.70;;
75818;SDS011;64453;51.944;9.796;2023-03-08T09:10:15;16.87;;;15.33;;
75818;SDS011;64453;51.944;9.796;2023-03-08T09:12:42;16.57;;;14.97;;
75818;SDS011;64453;51.944;9.796;2023-03-08T09:15:11;16.10;;;14.60;;
75818;SDS011;64453;51.944;9.796;2023-03-08T09:17:38;14.77;;;13.47;;
75818;SDS011;64453;51.944;9.796;2023-03-08T09:20:06;16.13;;;14.63;;
75818;SDS011;64453;51.944;9.796;2023-03-08T09:22:34;15.90;;;14.50;;
75818;SDS011;64453;51.944;9.796;2023-03-08T09:25:01;14.60;;;13.33;;
75818;SDS011;64453;51.944;9.796;2023-03-08T09:27:29;14.10;;;12.87;;
75818;SDS011;64453;51.944;9.796;2023-03-08T09:29:56;13.87;;;12.57;;
75818;SDS011;64453;51.944;9.796;2023-03-08T09:32:24;13.70;;;12.50;;
75818;SDS011;64453;51.944;9.796;2023-03-08T09:34:52;15.97;;;14.47;;
75818;SDS011;64453;51.944;9.796;2023-03-08T09:37:19;14.03;;;12.83;;
75818;SDS011;64453;51.944;9.796;2023-03-08T09:39:49;12.77;;;11.60;;
75818;SDS011;64453;51.944;9.796;2023-03-08T09:42:17;14.10;;;12.90;;
75818;SDS011;64453;51.944;9.796;2023-03-08T09:44:55;13.53;;;12.40;;
75818;SDS011;64453;51.944;9.796;2023-03-08T09:47:40;13.63;;;12.43;;
75818;SDS011;64453;51.944;9.796;2023-03-08T09:50:27;14.37;;;12.97;;
75818;SDS011;64453;51.944;9.796;2023-03-08T09:53:03;13.70;;;12.50;;
75818;SDS011;64453;51.944;9.796;2023-03-08T09:55:43;14.00;;;12.80;;
75818;SDS011;64453;51.944;9.796;2023-03-08T09:58:16;14.20;;;12.90;;
75818;SDS011;64453;51.944;9.796;2023-03-08T10:00:54;12.07;;;11.03;;
75818;SDS011;64453;51.944;9.796;2023-03-08T10:03:36;12.60;;;11.47;;
75818;SDS011;64453;51.944;9.796;2023-03-08T10:06:21;12.57;;;11.40;;
75818;SDS011;64453;51.944;9.796;2023-03-08T10:08:59;12.83;;;11.73;;
75818;SDS011;64453;51.944;9.796;2023-03-08T10:11:35;12.30;;;11.30;;
75818;SDS011;64453;51.944;9.796;2023-03-08T10:14:11;12.50;;;11.50;;
75818;SDS011;64453;51.944;9.796;2023-03-08T10:16:44;10.43;;;9.63;;
75818;SDS011;64453;51.944;9.796;2023-03-08T10:19:19;11.63;;;10.73;;
75818;SDS011;64453;51.944;9.796;2023-03-08T10:21:52;10.93;;;10.07;;
75818;SDS011;64453;51.944;9.796;2023-03-08T10:24:23;9.97;;;9.07;;
75818;SDS011;64453;51.944;9.796;2023-03-08T10:26:59;9.70;;;8.90;;
75818;SDS011;64453;51.944;9.796;2023-03-08T10:29:35;9.80;;;8.90;;
75818;SDS011;64453;51.944;9.796;2023-03-08T10:32:02;9.77;;;8.87;;
75818;SDS011;64453;51.944;9.796;2023-03-08T10:34:31;9.43;;;8.73;;
75818;SDS011;64453;51.944;9.796;2023-03-08T10:37:00;8.90;;;8.30;;
75818;SDS011;64453;51.944;9.796;2023-03-08T10:39:31;8.80;;;8.20;;
75818;SDS011;64453;51.944;9.796;2023-03-08T10:42:01;9.10;;;8.40;;
75818;SDS011;64453;51.944;9.796;2023-03-08T10:44:33;8.83;;;8.13;;
75818;SDS011;64453;51.944;9.796;2023-03-08T10:47:18;8.73;;;8.03;;
75818;SDS011;64453;51.944;9.796;2023-03-08T10:50:03;8.97;;;8.27;;
75818;SDS011;64453;51.944;9.796;2023-03-08T10:52:38;7.33;;;6.80;;
75818;SDS011;64453;51.944;9.796;2023-03-08T10:55:06;6.00;;;5.60;;
75818;SDS011;64453;51.944;9.796;2023-03-08T10:57:38;4.90;;;4.63;;
75818;SDS011;64453;51.944;9.796;2023-03-08T11:00:20;5.80;;;5.40;;
75818;SDS011;64453;51.944;9.796;2023-03-08T11:03:09;6.20;;;5.80;;
75818;SDS011;64453;51.944;9.796;2023-03-08T11:05:50;6.40;;;6.00;;
75818;SDS011;64453;51.944;9.796;2023-03-08T11:08:20;6.90;;;6.40;;
75818;SDS011;64453;51.944;9.796;2023-03-08T11:11:06;7.00;;;6.50;;
75818;SDS011;64453;51.944;9.796;2023-03-08T11:13:36;6.00;;;5.60;;
75818;SDS011;64453;51.944;9.796;2023-03-08T11:16:07;6.07;;;5.67;;
75818;SDS011;64453;51.944;9.796;2023-03-08T11:18:57;6.70;;;6.20;;
75818;SDS011;64453;51.944;9.796;2023-03-08T11:21:35;5.60;;;5.30;;
75818;SDS011;64453;51.944;9.796;2023-03-08T11:24:15;5.30;;;4.97;;
75818;SDS011;64453;51.944;9.796;2023-03-08T11:26:55;5.67;;;5.30;;
75818;SDS011;64453;51.944;9.796;2023-03-08T11:29:40;13.73;;;12.53;;
75818;SDS011;64453;51.944;9.796;2023-03-08T11:32:21;7.27;;;6.77;;
75818;SDS011;64453;51.944;9.796;2023-03-08T11:35:08;4.33;;;4.13;;
75818;SDS011;64453;51.944;9.796;2023-03-08T11:37:49;2.83;;;2.73;;
75818;SDS011;64453;51.944;9.796;2023-03-08T11:40:26;3.27;;;3.17;;
75818;SDS011;64453;51.944;9.796;2023-03-08T11:43:02;2.70;;;2.60;;
75818;SDS011;64453;51.944;9.796;2023-03-08T11:45:42;2.87;;;2.77;;
75818;SDS011;64453;51.944;9.796;2023-03-08T11:48:40;3.10;;;3.00;;
75818;SDS011;64453;51.944;9.796;2023-03-08T11:51:29;3.00;;;2.90;;
75818;SDS011;64453;51.944;9.796;2023-03-08T11:54:08;3.00;;;2.90;;
75818;SDS011;64453;51.944;9.796;2023-03-08T11:56:43;2.97;;;2.87;;
75818;SDS011;64453;51.944;9.796;2023-03-08T11:59:18;3.00;;;2.83;;
75818;SDS011;64453;51.944;9.796;2023-03-08T12:01:56;2.97;;;2.87;;
75818;SDS011;64453;51.944;9.796;2023-03-08T12:04:29;3.23;;;3.07;;
75818;SDS011;64453;51.944;9.796;2023-03-08T12:07:05;2.80;;;2.70;;
75818;SDS011;64453;51.944;9.796;2023-03-08T12:09:44;3.23;;;3.07;;
75818;SDS011;64453;51.944;9.796;2023-03-08T12:12:20;3.40;;;3.30;;
75818;SDS011;64453;51.944;9.796;2023-03-08T12:14:54;3.30;;;3.07;;
75818;SDS011;64453;51.944;9.796;2023-03-08T12:17:27;4.37;;;4.07;;
75818;SDS011;64453;51.944;9.796;2023-03-08T12:20:00;5.03;;;4.73;;
75818;SDS011;64453;51.944;9.796;2023-03-08T12:22:35;3.70;;;3.50;;
75818;SDS011;64453;51.944;9.796;2023-03-08T12:25:14;3.40;;;3.20;;
75818;SDS011;64453;51.944;9.796;2023-03-08T12:27:51;2.80;;;2.60;;
75818;SDS011;64453;51.944;9.796;2023-03-08T12:30:25;2.50;;;2.40;;
75818;SDS011;64453;51.944;9.796;2023-03-08T12:33:10;2.60;;;2.50;;
75818;SDS011;64453;51.944;9.796;2023-03-08T12:35:48;2.20;;;2.10;;
75818;SDS011;64453;51.944;9.796;2023-03-08T12:38:28;2.23;;;2.13;;
75818;SDS011;64453;51.944;9.796;2023-03-08T12:41:03;1.73;;;1.73;;
75818;SDS011;64453;51.944;9.796;2023-03-08T12:43:43;2.13;;;2.07;;
75818;SDS011;64453;51.944;9.796;2023-03-08T12:46:10;1.97;;;1.87;;
75818;SDS011;64453;51.944;9.796;2023-03-08T12:48:37;2.33;;;2.23;;
75818;SDS011;64453;51.944;9.796;2023-03-08T12:51:18;2.03;;;1.93;;
75818;SDS011;64453;51.944;9.796;2023-03-08T12:53:56;1.73;;;1.73;;
75818;SDS011;64453;51.944;9.796;2023-03-08T12:56:29;2.30;;;2.20;;
75818;SDS011;64453;51.944;9.796;2023-03-08T12:58:59;2.17;;;2.07;;
75818;SDS011;64453;51.944;9.796;2023-03-08T13:01:29;2.00;;;1.90;;
75818;SDS011;64453;51.944;9.796;2023-03-08T13:04:02;2.60;;;2.50;;
75818;SDS011;64453;51.944;9.796;2023-03-08T13:06:41;2.70;;;2.60;;
75818;SDS011;64453;51.944;9.796;2023-03-08T13:13:00;3.30;;;3.10;;
75818;SDS011;64453;51.944;9.796;2023-03-08T13:15:41;3.37;;;3.17;;
75818;SDS011;64453;51.944;9.796;2023-03-08T13:18:12;3.23;;;3.03;;
75818;SDS011;64453;51.944;9.796;2023-03-08T13:23:45;3.07;;;2.97;;
75818;SDS011;64453;51.944;9.796;2023-03-08T13:26:29;3.20;;;3.00;;
75818;SDS011;64453;51.944;9.796;2023-03-08T13:29:13;2.90;;;2.80;;
75818;SDS011;64453;51.944;9.796;2023-03-08T13:31:42;2.70;;;2.60;;
75818;SDS011;64453;51.944;9.796;2023-03-08T13:37:00;3.13;;;3.03;;
75818;SDS011;64453;51.944;9.796;2023-03-08T13:39:27;3.53;;;3.33;;
75818;SDS011;64453;51.944;9.796;2023-03-08T13:42:04;2.80;;;2.70;;
75818;SDS011;64453;51.944;9.796;2023-03-08T13:44:34;2.77;;;2.60;;
75818;SDS011;64453;51.944;9.796;2023-03-08T13:47:02;3.83;;;3.10;;
75818;SDS011;64453;51.944;9.796;2023-03-08T13:49:41;2.67;;;2.57;;
75818;SDS011;64453;51.944;9.796;2023-03-08T13:52:13;2.17;;;2.07;;
75818;SDS011;64453;51.944;9.796;2023-03-08T13:54:43;2.70;;;2.60;;
75818;SDS011;64453;51.944;9.796;2023-03-08T13:57:17;1.87;;;1.87;;
75818;SDS011;64453;51.944;9.796;2023-03-08T13:59:49;3.17;;;3.07;;
75818;SDS011;64453;51.944;9.796;2023-03-08T14:02:19;3.53;;;3.33;;
75818;SDS011;64453;51.944;9.796;2023-03-08T14:04:49;3.80;;;3.60;;
75818;SDS011;64453;51.944;9.796;2023-03-08T14:07:19;3.30;;;3.20;;
75818;SDS011;64453;51.944;9.796;2023-03-08T14:09:48;3.50;;;3.30;;
75818;SDS011;64453;51.944;9.796;2023-03-08T14:12:16;3.43;;;3.23;;
75818;SDS011;64453;51.944;9.796;2023-03-08T14:14:46;3.20;;;3.10;;
75818;SDS011;64453;51.944;9.796;2023-03-08T14:17:18;3.90;;;3.70;;
75818;SDS011;64453;51.944;9.796;2023-03-08T14:19:51;3.57;;;3.30;;
75818;SDS011;64453;51.944;9.796;2023-03-08T14:22:19;3.47;;;3.37;;
75818;SDS011;64453;51.944;9.796;2023-03-08T14:24:49;3.70;;;3.50;;
75818;SDS011;64453;51.944;9.796;2023-03-08T14:27:29;2.63;;;2.53;;
75818;SDS011;64453;51.944;9.796;2023-03-08T14:30:09;3.20;;;3.00;;
75818;SDS011;64453;51.944;9.796;2023-03-08T14:32:55;3.47;;;3.27;;
75818;SDS011;64453;51.944;9.796;2023-03-08T14:35:31;3.23;;;3.13;;
75818;SDS011;64453;51.944;9.796;2023-03-08T14:38:01;3.03;;;2.93;;
75818;SDS011;64453;51.944;9.796;2023-03-08T14:40:29;3.93;;;3.73;;
75818;SDS011;64453;51.944;9.796;2023-03-08T14:42:59;3.43;;;3.23;;
75818;SDS011;64453;51.944;9.796;2023-03-08T14:45:34;2.90;;;2.80;;
75818;SDS011;64453;51.944;9.796;2023-03-08T14:48:13;3.03;;;2.87;;
75818;SDS011;64453;51.944;9.796;2023-03-08T14:50:53;4.17;;;3.97;;
75818;SDS011;64453;51.944;9.796;2023-03-08T14:53:23;3.90;;;3.70;;
75818;SDS011;64453;51.944;9.796;2023-03-08T14:55:57;3.73;;;3.50;;
75818;SDS011;64453;51.944;9.796;2023-03-08T14:58:28;4.63;;;4.33;;
75818;SDS011;64453;51.944;9.796;2023-03-08T15:00:59;4.20;;;3.90;;
75818;SDS011;64453;51.944;9.796;2023-03-08T15:03:27;7.07;;;6.47;;